Time;durP1;ratioP1;P1;durP2;ratioP2;P2;SDS_P1;SDS_P2;PMS_P1;PMS_P2;Temp;Humidity;BMP_temperature;BMP_pressure;BME280_temperature;BME280_humidity;BME280_pressure;Samples;Min_cycle;Max_cycle;Signal;HPM_P1;HPM_P2
2021/12/22 00:01:52;;;;;;;4.70;4.40;;;0.70;99.90;;;;;;4967581;28;20271;-90
2021/12/22 00:04:24;;;;;;;2.50;2.30;;;0.70;99.90;;;;;;4986208;28;20226;-90
2021/12/22 00:06:51;;;;;;;3.10;2.87;;;0.70;99.90;;;;;;4986052;28;20188;-91
2021/12/22 00:09:17;;;;;;;3.20;2.50;;;0.70;99.90;;;;;;4986959;28;20790;-90
2021/12/22 00:11:43;;;;;;;3.00;2.80;;;0.70;99.90;;;;;;4970785;28;20212;-91
2021/12/22 00:14:10;;;;;;;2.23;2.13;;;0.70;99.90;;;;;;4987074;28;20216;-92
2021/12/22 00:16:36;;;;;;;2.87;2.67;;;0.80;99.90;;;;;;4987551;28;20204;-90
2021/12/22 00:19:03;;;;;;;2.93;2.73;;;0.70;99.90;;;;;;4971180;28;20535;-91
2021/12/22 00:21:29;;;;;;;2.47;2.37;;;0.70;99.90;;;;;;4994367;28;20205;-91
2021/12/22 00:23:55;;;;;;;4.90;3.97;;;0.70;99.90;;;;;;4982303;28;20219;-90
2021/12/22 00:26:21;;;;;;;9.23;2.80;;;0.70;99.90;;;;;;4981305;28;20438;-90
2021/12/22 00:28:48;;;;;;;3.10;2.87;;;0.70;99.90;;;;;;4998078;28;20228;-90
2021/12/22 00:31:16;;;;;;;3.37;2.50;;;0.70;99.90;;;;;;4998203;28;20218;-90
2021/12/22 00:33:51;;;;;;;2.60;2.40;;;0.60;99.90;;;;;;4982807;28;20184;-91
2021/12/22 00:36:20;;;;;;;2.40;2.30;;;0.60;99.90;;;;;;4993180;28;20798;-91
2021/12/22 00:38:46;;;;;;;3.27;3.07;;;0.60;99.90;;;;;;4991672;28;20575;-90
2021/12/22 00:41:13;;;;;;;3.10;2.83;;;0.50;99.90;;;;;;5011040;28;21290;-90
2021/12/22 00:43:38;;;;;;;4.57;4.03;;;0.50;99.90;;;;;;4977866;28;20212;-90
2021/12/22 00:46:05;;;;;;;2.53;2.43;;;0.40;99.90;;;;;;4978367;28;20200;-90
2021/12/22 00:48:31;;;;;;;1.90;1.80;;;0.30;99.90;;;;;;4978150;28;20239;-92
2021/12/22 00:50:57;;;;;;;3.87;3.30;;;0.20;99.90;;;;;;4976718;28;20224;-90
2021/12/22 00:53:23;;;;;;;2.43;2.23;;;0.30;99.90;;;;;;4977483;28;20223;-90
2021/12/22 00:55:50;;;;;;;3.10;2.80;;;0.30;99.90;;;;;;4976137;28;20216;-90
2021/12/22 00:58:16;;;;;;;2.53;2.33;;;0.30;99.90;;;;;;4990813;28;20274;-90
2021/12/22 01:00:42;;;;;;;2.47;2.37;;;0.20;99.90;;;;;;4975456;28;20211;-89
2021/12/22 01:03:08;;;;;;;3.10;2.90;;;0.30;99.90;;;;;;4991306;28;20208;-89
2021/12/22 01:05:34;;;;;;;3.67;2.80;;;0.20;99.90;;;;;;4976062;28;20227;-90
2021/12/22 01:08:00;;;;;;;5.73;4.23;;;0.30;99.90;;;;;;4976129;28;20204;-91
2021/12/22 01:10:30;;;;;;;10.30;3.80;;;0.20;99.90;;;;;;4974561;28;20310;-91
2021/12/22 01:12:59;;;;;;;3.10;2.93;;;0.20;99.90;;;;;;4973362;28;20227;-91
2021/12/22 01:15:26;;;;;;;4.03;3.73;;;0.30;99.90;;;;;;5006120;28;20522;-91
2021/12/22 01:18:10;;;;;;;3.10;2.80;;;0.30;99.90;;;;;;4974130;28;20565;-90
2021/12/22 01:20:50;;;;;;;2.93;2.73;;;0.30;99.90;;;;;;4991455;28;20220;-90
2021/12/22 01:23:19;;;;;;;1.97;1.87;;;0.10;99.90;;;;;;4975999;28;20711;-90
2021/12/22 01:25:47;;;;;;;3.43;2.17;;;-0.20;99.90;;;;;;4988939;28;20224;-90
2021/12/22 01:28:14;;;;;;;4.10;3.00;;;-0.30;99.90;;;;;;4972862;28;20234;-90
2021/12/22 01:30:44;;;;;;;2.43;1.77;;;-0.40;99.90;;;;;;4988321;28;20188;-89
2021/12/22 01:33:10;;;;;;;2.47;2.27;;;-0.40;99.90;;;;;;4987433;28;20246;-91
2021/12/22 01:35:37;;;;;;;2.70;2.50;;;-0.40;99.90;;;;;;4971675;28;20215;-90
2021/12/22 01:38:05;;;;;;;1.67;1.57;;;-0.20;99.90;;;;;;4970980;28;20232;-90
2021/12/22 01:40:34;;;;;;;2.47;2.33;;;-0.20;99.90;;;;;;4971622;28;20646;-90
2021/12/22 01:43:02;;;;;;;3.57;3.13;;;-0.10;99.90;;;;;;4987940;28;20703;-91
2021/12/22 01:51:34;;;;;;;1.90;1.80;;;-0.10;99.90;;;;;;4989090;28;20980;-91
2021/12/22 01:54:04;;;;;;;1.83;1.73;;;-0.30;99.90;;;;;;4987975;28;20587;-90
2021/12/22 01:56:33;;;;;;;3.17;2.97;;;-0.50;99.90;;;;;;4987332;28;20307;-90
2021/12/22 01:59:01;;;;;;;2.80;2.70;;;-0.60;99.90;;;;;;4971640;28;20216;-90
2021/12/22 02:01:31;;;;;;;7.50;3.00;;;-0.70;99.90;;;;;;4987712;28;20328;-91
2021/12/22 02:03:57;;;;;;;2.43;2.23;;;-0.80;99.90;;;;;;4987245;28;20221;-90
2021/12/22 02:06:23;;;;;;;2.53;1.77;;;-0.90;99.90;;;;;;4971690;28;20255;-91
2021/12/22 02:08:49;;;;;;;10.50;2.00;;;-1.00;99.90;;;;;;4955660;28;20717;-90
2021/12/22 02:11:17;;;;;;;3.33;3.13;;;-1.00;99.90;;;;;;4987474;28;20357;-91
2021/12/22 02:13:47;;;;;;;3.07;2.87;;;-1.00;99.90;;;;;;4971040;28;20704;-90
2021/12/22 02:16:16;;;;;;;2.07;1.97;;;-1.00;99.90;;;;;;4971476;28;20215;-90
2021/12/22 02:18:47;;;;;;;3.40;1.60;;;-0.90;99.90;;;;;;4971441;28;20206;-89
2021/12/22 02:21:13;;;;;;;3.40;2.10;;;-1.00;99.90;;;;;;4987116;28;20243;-90
2021/12/22 02:23:40;;;;;;;1.40;1.40;;;-1.00;99.90;;;;;;4971058;28;20270;-90
2021/12/22 02:26:14;;;;;;;3.53;3.23;;;-1.00;99.90;;;;;;4970736;28;20285;-90
2021/12/22 02:28:45;;;;;;;1.57;1.47;;;-1.00;99.90;;;;;;4971531;28;20334;-90
2021/12/22 02:31:18;;;;;;;3.40;3.07;;;-1.00;99.90;;;;;;4987326;28;20222;-89
2021/12/22 02:33:47;;;;;;;2.53;2.37;;;-0.90;99.90;;;;;;4972198;28;20207;-90
2021/12/22 02:38:47;;;;;;;2.73;2.63;;;-0.90;99.90;;;;;;4972438;28;20211;-91
2021/12/22 02:41:15;;;;;;;1.00;1.00;;;-0.80;99.90;;;;;;4987869;28;20219;-90
2021/12/22 02:43:50;;;;;;;2.30;2.20;;;-0.90;99.90;;;;;;5004047;28;20219;-90
2021/12/22 02:46:22;;;;;;;3.00;2.60;;;-0.80;99.90;;;;;;4988146;28;20231;-90
2021/12/22 02:48:48;;;;;;;2.40;2.20;;;-0.80;99.90;;;;;;5006185;28;20180;-91
2021/12/22 02:51:15;;;;;;;3.70;1.97;;;-0.80;99.90;;;;;;5005012;28;20576;-91
2021/12/22 02:53:46;;;;;;;1.40;1.23;;;-0.80;99.90;;;;;;4972041;28;20219;-90
2021/12/22 02:57:06;;;;;;;3.20;1.97;;;-0.80;99.90;;;;;;4970477;28;20330;-91
2021/12/22 02:59:08;;;;;;;2.20;2.10;;;-0.80;99.90;;;;;;4981218;28;20274;-90
2021/12/22 03:02:07;;;;;;;3.43;3.20;;;-0.80;99.90;;;;;;4988416;28;20277;-90
2021/12/22 03:04:31;;;;;;;6.13;2.93;;;-0.80;99.90;;;;;;4987037;28;20754;-90
2021/12/22 03:07:00;;;;;;;2.47;2.23;;;-0.90;99.90;;;;;;4987627;28;20533;-91
2021/12/22 03:09:32;;;;;;;2.40;2.30;;;-0.80;99.90;;;;;;4957478;28;20232;-90
2021/12/22 03:12:01;;;;;;;3.57;3.00;;;-0.80;99.90;;;;;;5004763;28;20338;-90
2021/12/22 03:14:28;;;;;;;3.07;2.20;;;-0.70;99.90;;;;;;5005177;28;20223;-91
2021/12/22 03:16:54;;;;;;;1.93;1.83;;;-0.70;99.90;;;;;;4988156;28;20584;-91
2021/12/22 03:19:28;;;;;;;2.57;2.37;;;-0.80;99.90;;;;;;4972951;28;20220;-90
2021/12/22 03:22:01;;;;;;;2.37;2.17;;;-0.70;99.90;;;;;;4989161;28;20534;-90
2021/12/22 03:24:28;;;;;;;2.37;2.27;;;-0.70;99.90;;;;;;4972485;28;20192;-90
2021/12/22 03:26:54;;;;;;;1.60;1.50;;;-0.70;99.90;;;;;;4971137;28;20576;-90
2021/12/22 03:29:20;;;;;;;4.80;3.70;;;-0.70;99.90;;;;;;4987357;28;20216;-90
2021/12/22 03:31:47;;;;;;;2.37;2.03;;;-0.70;99.90;;;;;;4987796;28;20277;-90
2021/12/22 03:34:14;;;;;;;4.67;2.23;;;-0.80;99.90;;;;;;4970832;28;20204;-90
2021/12/22 03:36:42;;;;;;;3.00;2.73;;;-0.70;99.90;;;;;;4988095;28;20235;-92
2021/12/22 03:39:09;;;;;;;4.37;3.03;;;-0.70;99.90;;;;;;4987964;28;20228;-90
2021/12/22 03:41:35;;;;;;;4.77;2.97;;;-0.70;99.90;;;;;;4987114;28;20212;-91
2021/12/22 03:44:02;;;;;;;2.60;2.23;;;-0.80;99.90;;;;;;4971466;28;20823;-90
2021/12/22 03:46:28;;;;;;;3.50;2.47;;;-0.80;99.90;;;;;;4971578;28;20215;-90
2021/12/22 03:48:54;;;;;;;2.17;2.07;;;-0.80;99.90;;;;;;4971094;28;20196;-90
2021/12/22 03:51:20;;;;;;;1.87;1.77;;;-0.70;99.90;;;;;;4988463;28;20247;-90
2021/12/22 03:53:45;;;;;;;3.03;2.83;;;-0.80;99.90;;;;;;4987442;28;20705;-91
2021/12/22 03:56:11;;;;;;;2.87;2.67;;;-0.70;99.90;;;;;;4971152;28;20212;-90
2021/12/22 03:58:37;;;;;;;3.10;2.33;;;-0.80;99.90;;;;;;4955528;28;20816;-90
2021/12/22 04:01:04;;;;;;;3.30;1.93;;;-0.80;99.90;;;;;;4972163;28;20673;-90
2021/12/22 04:03:33;;;;;;;1.40;1.40;;;-0.80;99.90;;;;;;4988309;28;20180;-90
2021/12/22 04:05:59;;;;;;;4.13;3.70;;;-0.90;99.90;;;;;;5004218;28;20224;-90
2021/12/22 04:08:25;;;;;;;9.60;2.30;;;-0.80;99.90;;;;;;4974458;28;20232;-90
2021/12/22 04:10:51;;;;;;;2.07;1.97;;;-0.80;99.90;;;;;;4958835;28;20279;-91
2021/12/22 04:13:18;;;;;;;2.57;2.47;;;-0.90;99.90;;;;;;4959244;28;21183;-91
2021/12/22 04:15:45;;;;;;;2.87;2.67;;;-0.90;99.90;;;;;;4992950;28;20270;-91
2021/12/22 04:18:12;;;;;;;2.93;2.73;;;-0.90;99.90;;;;;;4987770;28;20240;-90
2021/12/22 04:20:38;;;;;;;1.70;1.53;;;-0.90;99.90;;;;;;4972605;28;20213;-90
2021/12/22 04:23:04;;;;;;;8.43;2.00;;;-0.80;99.90;;;;;;4972935;28;20283;-89
2021/12/22 04:25:31;;;;;;;3.20;3.00;;;-0.80;99.90;;;;;;4986584;28;20236;-90
2021/12/22 04:28:07;;;;;;;4.07;2.33;;;-0.80;99.90;;;;;;4991642;28;20223;-91
2021/12/22 04:30:40;;;;;;;1.13;1.13;;;-0.90;99.90;;;;;;5007646;28;20184;-89
2021/12/22 04:33:06;;;;;;;2.93;2.53;;;-0.80;99.90;;;;;;4990276;28;20274;-90
2021/12/22 04:35:33;;;;;;;3.53;3.27;;;-0.90;99.90;;;;;;4974999;28;20697;-91
2021/12/22 04:38:00;;;;;;;2.23;1.93;;;-0.90;99.90;;;;;;4993844;28;20220;-92
2021/12/22 04:40:26;;;;;;;3.70;2.23;;;-0.90;99.90;;;;;;4995204;28;20306;-90
2021/12/22 04:42:52;;;;;;;4.63;2.80;;;-1.00;99.90;;;;;;5007714;28;20542;-89
2021/12/22 04:45:18;;;;;;;4.87;2.90;;;-1.00;99.90;;;;;;4990752;28;20212;-90
2021/12/22 04:47:45;;;;;;;1.67;1.53;;;-1.00;99.90;;;;;;4972594;28;20208;-90
2021/12/22 04:50:16;;;;;;;3.13;3.00;;;-1.00;99.90;;;;;;4956588;28;20196;-90
2021/12/22 04:52:56;;;;;;;3.07;2.87;;;-1.10;99.90;;;;;;4989004;28;20210;-89
2021/12/22 04:55:25;;;;;;;4.30;3.80;;;-1.20;99.90;;;;;;4974983;28;20216;-90
2021/12/22 04:57:52;;;;;;;3.63;2.30;;;-1.30;99.90;;;;;;4989194;28;20188;-90
2021/12/22 05:00:19;;;;;;;1.40;1.30;;;-1.20;99.90;;;;;;4973552;28;20271;-90
2021/12/22 05:02:45;;;;;;;2.37;2.27;;;-1.20;99.90;;;;;;4988738;28;20211;-90
2021/12/22 05:05:11;;;;;;;1.20;1.20;;;-1.30;99.90;;;;;;4990155;28;20735;-92
2021/12/22 05:07:37;;;;;;;1.87;1.77;;;-1.20;99.90;;;;;;4962423;28;20626;-90
2021/12/22 05:10:05;;;;;;;2.57;2.37;;;-1.20;99.90;;;;;;4990558;28;20223;-90
2021/12/22 05:12:31;;;;;;;1.53;1.50;;;-1.10;99.90;;;;;;4973353;28;20297;-90
2021/12/22 05:14:56;;;;;;;2.73;2.53;;;-1.10;99.90;;;;;;4972329;28;20243;-90
2021/12/22 05:17:37;;;;;;;1.63;1.53;;;-1.10;99.90;;;;;;4956144;28;20315;-90
2021/12/22 05:20:05;;;;;;;3.33;2.83;;;-1.10;99.90;;;;;;4962188;28;20294;-91
2021/12/22 05:22:33;;;;;;;1.07;1.07;;;-1.10;99.90;;;;;;4989394;28;20224;-90
2021/12/22 05:24:59;;;;;;;2.97;2.13;;;-1.10;99.90;;;;;;4957928;28;20223;-90
2021/12/22 05:27:26;;;;;;;2.40;2.30;;;-1.10;99.90;;;;;;4958106;28;20203;-90
2021/12/22 05:29:52;;;;;;;15.57;4.47;;;-1.10;99.90;;;;;;4957435;28;20208;-90
2021/12/22 05:32:17;;;;;;;1.43;1.43;;;-1.10;99.90;;;;;;4974340;28;20580;-90
2021/12/22 05:34:43;;;;;;;2.07;1.50;;;-1.00;99.90;;;;;;4975225;28;20779;-91
2021/12/22 05:37:09;;;;;;;1.40;1.30;;;-1.00;99.90;;;;;;4967895;28;20223;-91
2021/12/22 05:39:35;;;;;;;6.73;2.47;;;-1.00;99.90;;;;;;4942926;28;20966;-92
2021/12/22 05:42:01;;;;;;;2.97;2.83;;;-1.00;99.90;;;;;;4946576;28;20216;-91
2021/12/22 05:44:28;;;;;;;3.83;2.37;;;-1.10;99.90;;;;;;4970762;28;20696;-90
2021/12/22 05:46:53;;;;;;;10.10;2.83;;;-1.00;99.90;;;;;;4977737;28;20232;-91
2021/12/22 05:49:19;;;;;;;4.50;2.47;;;-1.00;99.90;;;;;;4946423;28;20220;-91
2021/12/22 05:51:45;;;;;;;3.23;3.03;;;-1.10;99.90;;;;;;4985255;28;20195;-92
2021/12/22 05:54:11;;;;;;;1.97;1.87;;;-1.10;99.90;;;;;;4989503;28;20212;-91
2021/12/22 05:56:38;;;;;;;2.03;1.83;;;-1.10;99.90;;;;;;4965170;28;20212;-91
2021/12/22 05:59:06;;;;;;;1.83;1.67;;;-1.10;99.90;;;;;;4983829;28;20224;-91
2021/12/22 06:01:32;;;;;;;2.47;2.37;;;-1.00;99.90;;;;;;4981364;28;20224;-91
2021/12/22 06:04:00;;;;;;;1.50;1.40;;;-1.00;99.90;;;;;;4979057;28;20255;-91
2021/12/22 06:06:26;;;;;;;3.20;3.00;;;-1.10;99.90;;;;;;4967438;28;20223;-89
2021/12/22 06:08:53;;;;;;;2.03;1.93;;;-1.10;99.90;;;;;;4982579;28;20240;-89
2021/12/22 06:11:19;;;;;;;1.07;1.07;;;-1.10;99.90;;;;;;4985884;28;20216;-87
2021/12/22 06:13:45;;;;;;;1.33;1.23;;;-1.20;99.90;;;;;;4961118;28;20583;-86
2021/12/22 06:16:10;;;;;;;1.93;1.83;;;-1.20;99.90;;;;;;4963071;28;20258;-87
2021/12/22 06:18:42;;;;;;;1.63;1.53;;;-1.30;99.90;;;;;;4982734;28;20180;-88
2021/12/22 06:21:08;;;;;;;2.53;2.33;;;-1.30;99.90;;;;;;4966598;28;20213;-87
2021/12/22 06:23:34;;;;;;;4.43;3.13;;;-1.30;99.90;;;;;;4983558;28;20223;-87
2021/12/22 06:26:00;;;;;;;2.27;2.07;;;-1.30;99.90;;;;;;4955284;28;20219;-87
2021/12/22 06:28:26;;;;;;;2.30;1.83;;;-1.30;99.90;;;;;;4961774;28;20223;-87
2021/12/22 06:30:51;;;;;;;2.40;2.20;;;-1.30;99.90;;;;;;4981183;28;20192;-87
2021/12/22 06:33:17;;;;;;;3.27;2.80;;;-1.30;99.90;;;;;;4971683;28;20204;-86
2021/12/22 06:35:46;;;;;;;2.23;2.03;;;-1.40;99.90;;;;;;4969215;28;20211;-87
2021/12/22 06:38:16;;;;;;;3.57;1.83;;;-1.40;99.90;;;;;;4968236;28;20716;-86
2021/12/22 06:40:42;;;;;;;2.33;2.07;;;-1.50;99.90;;;;;;4969792;28;20245;-88
2021/12/22 06:43:09;;;;;;;1.00;1.00;;;-1.50;99.90;;;;;;4983925;28;21150;-87
2021/12/22 06:45:34;;;;;;;1.67;1.50;;;-1.50;99.90;;;;;;4983733;28;20787;-87
2021/12/22 06:48:00;;;;;;;3.60;1.83;;;-1.50;99.90;;;;;;4952097;28;20212;-87
2021/12/22 06:50:27;;;;;;;3.50;2.33;;;-1.50;99.90;;;;;;4974882;28;20212;-87
2021/12/22 06:52:53;;;;;;;2.27;2.17;;;-1.50;99.90;;;;;;5008355;28;20211;-87
2021/12/22 06:55:18;;;;;;;1.43;1.33;;;-1.50;99.90;;;;;;4992664;28;20235;-85
2021/12/22 06:57:44;;;;;;;3.60;3.30;;;-1.50;99.90;;;;;;4989084;28;20207;-87
2021/12/22 07:00:12;;;;;;;1.83;1.73;;;-1.50;99.90;;;;;;4971799;28;20208;-87
2021/12/22 07:02:39;;;;;;;2.27;2.10;;;-1.50;99.90;;;;;;5003361;28;20664;-86
2021/12/22 07:05:06;;;;;;;2.70;2.27;;;-1.50;99.90;;;;;;4971866;28;20275;-87
2021/12/22 07:07:33;;;;;;;2.53;2.33;;;-1.50;99.90;;;;;;4990911;28;20619;-88
2021/12/22 07:09:58;;;;;;;3.83;2.23;;;-1.50;99.90;;;;;;4990356;28;20247;-86
2021/12/22 07:12:25;;;;;;;1.50;1.40;;;-1.50;99.90;;;;;;4973723;28;20262;-87
2021/12/22 07:14:51;;;;;;;2.43;2.23;;;-1.40;99.90;;;;;;4977502;28;20211;-88
2021/12/22 07:17:17;;;;;;;2.17;1.97;;;-1.50;99.90;;;;;;4990812;28;20235;-90
2021/12/22 07:19:43;;;;;;;1.27;1.17;;;-1.40;99.90;;;;;;4961356;28;20219;-89
2021/12/22 07:22:08;;;;;;;4.20;3.60;;;-1.50;99.90;;;;;;4965566;28;20235;-88
2021/12/22 07:24:37;;;;;;;2.77;2.67;;;-1.50;99.90;;;;;;4982765;28;20200;-88
2021/12/22 07:27:03;;;;;;;4.20;2.60;;;-1.40;99.90;;;;;;4977898;28;20264;-89
2021/12/22 07:29:29;;;;;;;5.20;1.80;;;-1.40;99.90;;;;;;4991827;28;20343;-90
2021/12/22 07:31:58;;;;;;;1.73;1.70;;;-1.50;99.90;;;;;;4974222;28;20258;-89
2021/12/22 07:35:11;;;;;;;2.53;2.37;;;-1.50;99.90;;;;;;4988978;28;20219;-88
2021/12/22 07:37:39;;;;;;;3.80;3.60;;;-1.50;99.90;;;;;;4982960;28;20563;-89
2021/12/22 07:40:08;;;;;;;2.37;2.07;;;-1.50;99.90;;;;;;4989556;28;20192;-89
2021/12/22 07:42:34;;;;;;;4.13;3.73;;;-1.50;99.90;;;;;;4992703;28;20191;-90
2021/12/22 07:44:59;;;;;;;1.97;1.87;;;-1.50;99.90;;;;;;4961970;28;20224;-90
2021/12/22 07:47:25;;;;;;;2.50;2.33;;;-1.50;99.90;;;;;;4959222;28;20254;-89
2021/12/22 07:49:51;;;;;;;1.83;1.77;;;-1.50;99.90;;;;;;4960407;28;20219;-88
2021/12/22 07:52:17;;;;;;;3.23;2.03;;;-1.50;99.90;;;;;;4974703;28;20254;-89
2021/12/22 07:54:42;;;;;;;3.00;2.87;;;-1.50;99.90;;;;;;4963532;28;20195;-89
2021/12/22 07:57:08;;;;;;;1.77;1.70;;;-1.40;99.90;;;;;;4959751;28;20269;-88
2021/12/22 07:59:34;;;;;;;1.87;1.77;;;-1.50;99.90;;;;;;4976509;28;20272;-89
2021/12/22 08:02:00;;;;;;;2.13;1.93;;;-1.40;99.90;;;;;;4991983;28;20224;-92
2021/12/22 08:04:26;;;;;;;4.20;3.80;;;-1.40;99.90;;;;;;4993845;28;20216;-88
2021/12/22 08:06:52;;;;;;;3.50;2.50;;;-1.40;99.90;;;;;;4974801;28;20219;-89
2021/12/22 08:09:18;;;;;;;4.10;3.43;;;-1.30;99.90;;;;;;4975141;28;20223;-89
2021/12/22 08:11:44;;;;;;;1.10;1.10;;;-1.30;99.90;;;;;;4975014;28;20216;-90
2021/12/22 08:14:10;;;;;;;2.50;1.07;;;-1.30;99.90;;;;;;4958968;28;20692;-90
2021/12/22 08:16:35;;;;;;;1.67;1.67;;;-1.30;99.90;;;;;;4974243;28;20219;-89
2021/12/22 08:19:01;;;;;;;7.77;2.57;;;-1.20;99.90;;;;;;4975642;28;21538;-90
2021/12/22 08:21:27;;;;;;;5.80;0.87;;;-1.10;99.90;;;;;;4995372;28;20693;-89
2021/12/22 08:23:53;;;;;;;2.23;2.13;;;-1.10;99.90;;;;;;5008608;28;20258;-89
2021/12/22 08:26:19;;;;;;;3.97;3.67;;;-1.10;99.90;;;;;;4975560;28;20719;-91
2021/12/22 08:28:48;;;;;;;3.27;3.00;;;-1.10;99.90;;;;;;4975127;28;20213;-91
2021/12/22 08:31:15;;;;;;;6.30;2.50;;;-1.00;99.90;;;;;;4979463;28;21004;-90
2021/12/22 08:33:45;;;;;;;1.30;1.30;;;-1.00;99.90;;;;;;4993557;28;20188;-91
2021/12/22 08:38:58;;;;;;;1.20;1.20;;;-0.90;99.90;;;;;;4991154;28;20223;-90
2021/12/22 08:41:33;;;;;;;2.73;2.30;;;-0.90;99.90;;;;;;4974953;28;20688;-91
2021/12/22 08:44:10;;;;;;;2.83;2.37;;;-0.90;99.90;;;;;;4990394;28;20242;-91
2021/12/22 08:46:39;;;;;;;1.20;1.20;;;-0.90;99.90;;;;;;4976393;28;20231;-90
2021/12/22 08:49:07;;;;;;;1.83;1.40;;;-0.90;99.90;;;;;;5007347;28;20198;-92
2021/12/22 08:51:33;;;;;;;4.07;2.67;;;-0.90;99.90;;;;;;4992004;28;20183;-91
2021/12/22 08:54:03;;;;;;;4.87;2.73;;;-0.80;99.90;;;;;;4991995;28;20315;-91
2021/12/22 08:56:29;;;;;;;2.40;2.20;;;-0.80;99.90;;;;;;4976283;28;20266;-91
2021/12/22 08:58:55;;;;;;;2.40;1.30;;;-0.70;99.90;;;;;;4993168;28;20662;-92
2021/12/22 09:01:25;;;;;;;3.33;2.70;;;-0.80;99.90;;;;;;4961339;28;20700;-90
2021/12/22 09:03:51;;;;;;;1.80;1.63;;;-0.70;99.90;;;;;;4992287;28;20211;-90
2021/12/22 09:06:18;;;;;;;4.00;2.73;;;-0.60;99.90;;;;;;4976806;28;20287;-90
2021/12/22 09:08:45;;;;;;;1.60;1.50;;;-0.60;99.90;;;;;;4959186;28;20228;-90
2021/12/22 09:11:11;;;;;;;2.43;2.33;;;-0.50;99.90;;;;;;4993544;28;20579;-91
2021/12/22 09:13:39;;;;;;;2.30;2.20;;;-0.50;99.90;;;;;;4962167;28;20224;-91
2021/12/22 09:16:06;;;;;;;8.63;2.40;;;-0.40;99.90;;;;;;4977719;28;20199;-91
2021/12/22 09:18:32;;;;;;;2.53;2.27;;;-0.30;99.90;;;;;;4977503;28;20191;-90
2021/12/22 09:20:58;;;;;;;2.70;2.50;;;-0.20;99.90;;;;;;4975977;28;20256;-91
2021/12/22 09:23:24;;;;;;;2.20;2.10;;;-0.20;99.90;;;;;;4994326;28;20217;-90
2021/12/22 09:25:50;;;;;;;2.33;2.13;;;-0.20;99.90;;;;;;4992779;28;20227;-91
2021/12/22 09:28:16;;;;;;;8.20;4.57;;;-0.20;99.90;;;;;;4994255;28;20224;-90
2021/12/22 09:30:44;;;;;;;1.10;1.10;;;-0.10;99.90;;;;;;4994529;28;20620;-90
2021/12/22 09:33:14;;;;;;;3.30;3.10;;;-0.20;99.90;;;;;;4976313;28;20276;-90
2021/12/22 09:35:45;;;;;;;3.30;3.07;;;-0.10;99.90;;;;;;4993042;28;20243;-90
2021/12/22 09:38:13;;;;;;;4.10;3.63;;;-0.10;99.90;;;;;;5009428;28;20287;-89
2021/12/22 09:40:39;;;;;;;3.27;2.97;;;0.00;99.90;;;;;;4993284;28;20212;-90
2021/12/22 09:43:06;;;;;;;2.83;2.53;;;0.00;99.90;;;;;;4978737;28;20642;-92
2021/12/22 09:45:36;;;;;;;1.67;1.57;;;0.10;99.90;;;;;;4994697;28;20334;-92
2021/12/22 09:52:17;;;;;;;2.70;2.57;;;0.30;99.90;;;;;;4997438;28;20216;-92
2021/12/22 09:53:23;;;;;;;5.60;2.90;;;0.40;99.90;;;;;;4994508;28;20227;-91
2021/12/22 09:55:50;;;;;;;5.30;3.63;;;0.40;99.90;;;;;;4992119;28;20215;-91
2021/12/22 09:58:17;;;;;;;2.93;2.73;;;0.40;99.90;;;;;;4961731;28;20230;-90
2021/12/22 10:00:44;;;;;;;2.10;2.00;;;0.40;99.90;;;;;;4995302;28;20191;-91
2021/12/22 10:03:11;;;;;;;2.37;2.10;;;0.30;99.90;;;;;;4978183;28;20212;-90
2021/12/22 10:05:39;;;;;;;7.67;3.10;;;0.40;99.90;;;;;;4977416;28;20311;-90
2021/12/22 10:08:06;;;;;;;2.63;2.20;;;0.40;99.90;;;;;;4994398;28;20208;-90
2021/12/22 10:10:33;;;;;;;1.80;1.67;;;0.30;99.90;;;;;;4994318;28;20303;-90
2021/12/22 10:13:06;;;;;;;2.67;2.53;;;0.40;99.90;;;;;;4978470;28;20180;-91
2021/12/22 10:15:34;;;;;;;6.60;4.40;;;0.40;99.90;;;;;;5011098;28;20242;-90
2021/12/22 10:18:15;;;;;;;2.57;2.47;;;0.50;99.90;;;;;;4977283;28;20270;-90
2021/12/22 10:20:44;;;;;;;2.97;2.77;;;0.50;99.90;;;;;;4973594;28;20235;-91
2021/12/22 10:23:22;;;;;;;4.50;2.80;;;0.50;99.90;;;;;;4989983;28;20266;-91
2021/12/22 10:25:56;;;;;;;4.93;4.63;;;0.50;99.90;;;;;;5007014;28;20613;-92
2021/12/22 10:28:22;;;;;;;2.13;2.03;;;0.60;99.90;;;;;;4987966;28;20223;-91
2021/12/22 10:30:55;;;;;;;2.20;1.93;;;0.70;99.90;;;;;;4987945;28;20203;-90
2021/12/22 10:33:24;;;;;;;2.90;2.67;;;0.70;99.90;;;;;;4989288;28;20249;-89
2021/12/22 10:35:57;;;;;;;1.30;1.30;;;0.80;99.90;;;;;;4990965;28;20216;-91
2021/12/22 10:38:26;;;;;;;2.73;2.53;;;0.90;99.90;;;;;;4990270;28;20223;-92
2021/12/22 10:41:00;;;;;;;4.50;3.33;;;0.90;99.90;;;;;;5007097;28;20282;-90
2021/12/22 10:43:28;;;;;;;1.87;1.77;;;0.90;99.90;;;;;;4989574;28;20262;-92
2021/12/22 10:46:03;;;;;;;1.37;1.37;;;0.90;99.90;;;;;;4991653;28;20210;-92
2021/12/22 10:51:32;;;;;;;3.80;3.07;;;1.00;99.90;;;;;;4987444;28;20282;-89
2021/12/22 10:54:00;;;;;;;2.17;2.07;;;0.90;99.90;;;;;;4985489;28;20635;-90
2021/12/22 10:56:29;;;;;;;4.17;2.43;;;1.00;99.90;;;;;;4985442;28;20235;-89
2021/12/22 10:59:14;;;;;;;5.07;4.60;;;1.00;99.90;;;;;;5002497;28;20261;-90
2021/12/22 11:01:48;;;;;;;6.10;4.37;;;1.00;99.90;;;;;;4986380;28;20216;-89
2021/12/22 11:04:18;;;;;;;1.03;1.03;;;1.00;99.90;;;;;;4987326;28;20227;-90
2021/12/22 11:06:44;;;;;;;3.00;2.80;;;1.00;99.90;;;;;;4986871;28;20211;-89
2021/12/22 11:09:14;;;;;;;4.90;4.23;;;1.00;99.90;;;;;;4969344;28;20324;-90
2021/12/22 11:11:43;;;;;;;2.47;2.33;;;1.00;99.90;;;;;;4986176;28;20232;-90
2021/12/22 11:14:10;;;;;;;2.00;1.90;;;1.00;99.90;;;;;;4986166;28;20216;-90
2021/12/22 11:16:55;;;;;;;3.03;1.80;;;0.90;99.90;;;;;;5002995;28;20225;-90
2021/12/22 11:19:22;;;;;;;6.37;3.23;;;0.90;99.90;;;;;;5005966;28;20242;-90
2021/12/22 11:22:16;;;;;;;2.13;2.03;;;1.00;99.90;;;;;;4991219;28;20711;-91
2021/12/22 11:24:47;;;;;;;2.37;2.27;;;1.00;99.90;;;;;;4970291;28;20212;-91
2021/12/22 11:27:19;;;;;;;1.90;1.80;;;1.00;99.90;;;;;;4990003;28;20760;-90
2021/12/22 11:29:54;;;;;;;2.20;2.10;;;1.10;99.90;;;;;;5006334;28;20216;-90
2021/12/22 11:32:22;;;;;;;2.07;1.30;;;1.00;99.90;;;;;;4989472;28;20707;-91
2021/12/22 11:34:51;;;;;;;4.03;3.73;;;1.20;99.90;;;;;;4990759;28;20219;-94
2021/12/22 11:37:19;;;;;;;3.07;2.80;;;1.00;99.90;;;;;;5005806;28;20231;-92
2021/12/22 11:39:45;;;;;;;2.33;2.20;;;1.10;99.90;;;;;;4974231;28;20195;-94
2021/12/22 11:42:13;;;;;;;2.83;2.13;;;1.20;99.90;;;;;;4990204;28;20212;-93
2021/12/22 11:44:42;;;;;;;4.17;3.80;;;1.20;99.90;;;;;;4974111;28;20223;-92
2021/12/22 11:47:10;;;;;;;4.13;2.83;;;1.10;99.90;;;;;;4989598;28;20204;-92
2021/12/22 11:49:57;;;;;;;2.77;1.93;;;1.10;99.90;;;;;;4989612;28;20755;-92
2021/12/22 11:52:53;;;;;;;5.30;3.00;;;1.10;99.90;;;;;;4990090;28;20219;-92
2021/12/22 11:55:42;;;;;;;2.70;1.50;;;1.20;99.90;;;;;;4984631;28;20727;-92
2021/12/22 11:58:12;;;;;;;3.23;3.03;;;1.10;99.90;;;;;;4989951;28;20284;-96
2021/12/22 12:00:57;;;;;;;2.30;2.20;;;1.10;99.90;;;;;;5006658;28;20188;-92
2021/12/22 12:03:40;;;;;;;3.13;2.73;;;1.20;99.90;;;;;;5006008;28;20208;-93
2021/12/22 12:06:14;;;;;;;2.23;2.07;;;1.30;99.90;;;;;;4974241;28;20306;-92
2021/12/22 12:08:55;;;;;;;4.13;3.73;;;1.30;99.90;;;;;;4988876;28;20235;-92
2021/12/22 12:11:34;;;;;;;11.37;3.70;;;1.40;99.90;;;;;;4990196;28;20216;-93
2021/12/22 12:14:10;;;;;;;2.97;2.77;;;1.30;99.90;;;;;;4988987;28;20219;-93
2021/12/22 12:22:28;;;;;;;3.00;2.83;;;1.60;99.90;;;;;;4989962;28;20684;-92
2021/12/22 12:24:56;;;;;;;3.00;2.80;;;1.50;99.90;;;;;;4988660;28;20198;-92
2021/12/22 12:27:33;;;;;;;3.20;3.00;;;1.60;99.90;;;;;;4989199;28;20649;-94
2021/12/22 12:30:03;;;;;;;2.00;1.90;;;1.60;99.90;;;;;;5004970;28;20215;-92
2021/12/22 12:32:50;;;;;;;1.73;1.63;;;1.60;99.90;;;;;;5004690;28;20265;-92
2021/12/22 12:35:26;;;;;;;3.53;3.20;;;1.70;99.90;;;;;;5005403;28;20228;-94
2021/12/22 12:37:56;;;;;;;2.60;2.40;;;1.70;99.90;;;;;;5005584;28;20996;-93
2021/12/22 12:40:22;;;;;;;4.20;3.00;;;1.70;99.90;;;;;;5005255;28;20227;-92
2021/12/22 12:43:01;;;;;;;5.50;3.33;;;1.90;99.90;;;;;;4973568;28;20192;-89
2021/12/22 12:45:47;;;;;;;4.10;3.03;;;2.00;99.90;;;;;;4974023;28;20318;-93
2021/12/22 12:48:27;;;;;;;3.67;2.67;;;2.10;99.90;;;;;;4991378;28;20219;-92
2021/12/22 12:51:37;;;;;;;1.97;1.87;;;2.00;99.90;;;;;;4996065;28;20216;-91
2021/12/22 12:54:25;;;;;;;3.57;3.37;;;2.00;99.90;;;;;;5008217;28;20283;-91
2021/12/22 12:57:13;;;;;;;3.33;3.13;;;2.00;99.90;;;;;;4992582;28;20267;-93
2021/12/22 12:59:42;;;;;;;1.77;1.40;;;2.00;99.90;;;;;;4992849;28;20243;-92
2021/12/22 13:02:10;;;;;;;3.60;3.30;;;2.10;99.90;;;;;;4990087;28;20228;-91
2021/12/22 13:04:39;;;;;;;3.63;3.47;;;2.00;99.90;;;;;;4990158;28;20234;-91
2021/12/22 13:07:08;;;;;;;5.13;4.73;;;2.00;99.90;;;;;;4988938;28;20311;-90
2021/12/22 13:09:38;;;;;;;3.53;2.73;;;2.20;99.90;;;;;;4988743;28;20319;-91
2021/12/22 13:12:32;;;;;;;3.53;2.73;;;2.20;99.90;;;;;;4988697;28;20740;-92
2021/12/22 13:17:54;;;;;;;4.87;4.47;;;1.90;99.90;;;;;;4990354;28;20242;-94
2021/12/22 13:20:29;;;;;;;2.63;2.43;;;1.80;99.90;;;;;;4988941;28;20228;-92
2021/12/22 13:23:04;;;;;;;3.03;2.83;;;1.70;99.90;;;;;;4985035;28;20254;-91
2021/12/22 13:25:33;;;;;;;2.67;2.57;;;1.60;99.90;;;;;;4988005;28;20724;-91
2021/12/22 13:28:04;;;;;;;5.00;4.63;;;1.50;99.90;;;;;;4988553;28;20993;-91